sensor_id;sensor_type;location;lat;lon;timestamp;P1;durP1;ratioP1;P2;durP2;ratioP2
44270;SDS011;29963;44.594;11.368;2023-05-07T00:01:24;14.63;;;12.90;;
44270;SDS011;29963;44.594;11.368;2023-05-07T00:03:49;13.02;;;11.70;;
44270;SDS011;29963;44.594;11.368;2023-05-07T00:06:15;13.98;;;12.73;;
44270;SDS011;29963;44.594;11.368;2023-05-07T00:08:40;13.82;;;12.52;;
44270;SDS011;29963;44.594;11.368;2023-05-07T00:11:06;17.35;;;13.15;;
44270;SDS011;29963;44.594;11.368;2023-05-07T00:13:31;12.93;;;11.60;;
44270;SDS011;29963;44.594;11.368;2023-05-07T00:16:00;15.13;;;13.60;;
44270;SDS011;29963;44.594;11.368;2023-05-07T00:18:29;18.42;;;14.82;;
44270;SDS011;29963;44.594;11.368;2023-05-07T00:20:54;16.23;;;14.63;;
44270;SDS011;29963;44.594;11.368;2023-05-07T00:23:21;16.20;;;14.55;;
44270;SDS011;29963;44.594;11.368;2023-05-07T00:25:47;14.80;;;13.10;;
44270;SDS011;29963;44.594;11.368;2023-05-07T00:28:13;14.00;;;12.20;;
44270;SDS011;29963;44.594;11.368;2023-05-07T00:30:38;14.52;;;13.02;;
44270;SDS011;29963;44.594;11.368;2023-05-07T00:33:04;16.10;;;14.00;;
44270;SDS011;29963;44.594;11.368;2023-05-07T00:35:29;16.80;;;13.10;;
44270;SDS011;29963;44.594;11.368;2023-05-07T00:37:55;15.98;;;14.27;;
44270;SDS011;29963;44.594;11.368;2023-05-07T00:40:21;17.35;;;13.48;;
44270;SDS011;29963;44.594;11.368;2023-05-07T00:42:46;20.15;;;13.65;;
44270;SDS011;29963;44.594;11.368;2023-05-07T00:45:14;16.48;;;14.80;;
44270;SDS011;29963;44.594;11.368;2023-05-07T00:47:40;15.20;;;13.63;;
44270;SDS011;29963;44.594;11.368;2023-05-07T00:50:06;16.58;;;14.43;;
44270;SDS011;29963;44.594;11.368;2023-05-07T00:52:33;17.17;;;14.95;;
44270;SDS011;29963;44.594;11.368;2023-05-07T00:55:00;16.85;;;15.15;;
44270;SDS011;29963;44.594;11.368;2023-05-07T00:57:32;16.83;;;14.82;;
44270;SDS011;29963;44.594;11.368;2023-05-07T01:00:01;18.10;;;14.70;;
44270;SDS011;29963;44.594;11.368;2023-05-07T01:02:28;15.90;;;14.32;;
44270;SDS011;29963;44.594;11.368;2023-05-07T01:04:54;17.08;;;14.95;;
44270;SDS011;29963;44.594;11.368;2023-05-07T01:07:20;15.70;;;13.68;;
44270;SDS011;29963;44.594;11.368;2023-05-07T01:09:46;17.77;;;15.77;;
44270;SDS011;29963;44.594;11.368;2023-05-07T01:12:12;17.88;;;15.10;;
44270;SDS011;29963;44.594;11.368;2023-05-07T01:14:38;16.13;;;14.48;;
44270;SDS011;29963;44.594;11.368;2023-05-07T01:17:04;16.65;;;15.05;;
44270;SDS011;29963;44.594;11.368;2023-05-07T01:19:29;16.52;;;14.82;;
44270;SDS011;29963;44.594;11.368;2023-05-07T01:21:56;18.45;;;16.55;;
44270;SDS011;29963;44.594;11.368;2023-05-07T01:24:32;17.08;;;15.27;;
44270;SDS011;29963;44.594;11.368;2023-05-07T01:26:58;18.17;;;16.25;;
44270;SDS011;29963;44.594;11.368;2023-05-07T01:29:24;17.92;;;16.13;;
44270;SDS011;29963;44.594;11.368;2023-05-07T01:31:50;17.85;;;15.88;;
44270;SDS011;29963;44.594;11.368;2023-05-07T01:34:17;17.73;;;15.82;;
44270;SDS011;29963;44.594;11.368;2023-05-07T01:36:45;20.23;;;16.80;;
44270;SDS011;29963;44.594;11.368;2023-05-07T01:39:11;18.45;;;15.45;;
44270;SDS011;29963;44.594;11.368;2023-05-07T01:41:38;17.13;;;15.35;;
44270;SDS011;29963;44.594;11.368;2023-05-07T01:44:04;17.88;;;15.63;;
44270;SDS011;29963;44.594;11.368;2023-05-07T01:46:31;17.02;;;15.25;;
44270;SDS011;29963;44.594;11.368;2023-05-07T01:48:57;18.10;;;16.30;;
44270;SDS011;29963;44.594;11.368;2023-05-07T01:51:23;24.25;;;17.02;;
44270;SDS011;29963;44.594;11.368;2023-05-07T01:53:49;15.55;;;13.95;;
44270;SDS011;29963;44.594;11.368;2023-05-07T01:56:16;16.10;;;14.50;;
44270;SDS011;29963;44.594;11.368;2023-05-07T01:58:43;11.38;;;9.98;;
44270;SDS011;29963;44.594;11.368;2023-05-07T02:01:10;8.75;;;7.43;;
44270;SDS011;29963;44.594;11.368;2023-05-07T02:03:36;10.43;;;8.73;;
44270;SDS011;29963;44.594;11.368;2023-05-07T02:06:02;9.00;;;8.07;;
44270;SDS011;29963;44.594;11.368;2023-05-07T02:08:27;9.10;;;8.15;;
44270;SDS011;29963;44.594;11.368;2023-05-07T02:10:53;8.48;;;7.47;;
44270;SDS011;29963;44.594;11.368;2023-05-07T02:13:19;8.95;;;7.03;;
44270;SDS011;29963;44.594;11.368;2023-05-07T02:15:44;8.40;;;6.18;;
44270;SDS011;29963;44.594;11.368;2023-05-07T02:18:14;9.20;;;8.18;;
44270;SDS011;29963;44.594;11.368;2023-05-07T02:20:40;8.90;;;7.95;;
44270;SDS011;29963;44.594;11.368;2023-05-07T02:23:06;8.80;;;7.93;;
44270;SDS011;29963;44.594;11.368;2023-05-07T02:25:31;8.25;;;7.45;;
44270;SDS011;29963;44.594;11.368;2023-05-07T02:27:57;8.57;;;7.65;;
44270;SDS011;29963;44.594;11.368;2023-05-07T02:30:22;7.60;;;6.90;;
44270;SDS011;29963;44.594;11.368;2023-05-07T02:32:50;7.63;;;6.82;;
44270;SDS011;29963;44.594;11.368;2023-05-07T02:35:15;7.25;;;6.38;;
44270;SDS011;29963;44.594;11.368;2023-05-07T02:37:41;7.63;;;5.85;;
44270;SDS011;29963;44.594;11.368;2023-05-07T02:40:07;6.53;;;5.90;;
44270;SDS011;29963;44.594;11.368;2023-05-07T02:42:33;6.25;;;5.65;;
44270;SDS011;29963;44.594;11.368;2023-05-07T02:44:59;8.15;;;7.13;;
44270;SDS011;29963;44.594;11.368;2023-05-07T02:47:24;8.32;;;6.78;;
44270;SDS011;29963;44.594;11.368;2023-05-07T02:49:54;8.38;;;7.47;;
44270;SDS011;29963;44.594;11.368;2023-05-07T02:52:20;8.80;;;7.60;;
44270;SDS011;29963;44.594;11.368;2023-05-07T02:54:46;7.70;;;7.00;;
44270;SDS011;29963;44.594;11.368;2023-05-07T02:57:11;8.50;;;7.63;;
44270;SDS011;29963;44.594;11.368;2023-05-07T02:59:37;9.23;;;7.63;;
44270;SDS011;29963;44.594;11.368;2023-05-07T03:02:02;9.18;;;7.85;;
44270;SDS011;29963;44.594;11.368;2023-05-07T03:04:28;11.63;;;7.32;;
44270;SDS011;29963;44.594;11.368;2023-05-07T03:06:54;8.40;;;7.57;;
44270;SDS011;29963;44.594;11.368;2023-05-07T03:09:19;9.07;;;7.35;;
44270;SDS011;29963;44.594;11.368;2023-05-07T03:11:45;11.48;;;7.40;;
44270;SDS011;29963;44.594;11.368;2023-05-07T03:14:11;8.85;;;8.00;;
44270;SDS011;29963;44.594;11.368;2023-05-07T03:16:37;9.68;;;7.07;;
44270;SDS011;29963;44.594;11.368;2023-05-07T03:19:03;8.40;;;7.32;;
44270;SDS011;29963;44.594;11.368;2023-05-07T03:21:29;7.90;;;7.13;;
44270;SDS011;29963;44.594;11.368;2023-05-07T03:23:55;8.40;;;6.43;;
44270;SDS011;29963;44.594;11.368;2023-05-07T03:26:21;10.55;;;9.32;;
44270;SDS011;29963;44.594;11.368;2023-05-07T03:28:47;10.40;;;8.85;;
44270;SDS011;29963;44.594;11.368;2023-05-07T03:31:12;10.20;;;8.73;;
44270;SDS011;29963;44.594;11.368;2023-05-07T03:33:39;9.43;;;8.63;;
44270;SDS011;29963;44.594;11.368;2023-05-07T03:36:21;11.10;;;9.30;;
44270;SDS011;29963;44.594;11.368;2023-05-07T03:38:48;11.05;;;8.50;;
44270;SDS011;29963;44.594;11.368;2023-05-07T03:41:13;10.40;;;9.40;;
44270;SDS011;29963;44.594;11.368;2023-05-07T03:43:39;10.60;;;9.50;;
44270;SDS011;29963;44.594;11.368;2023-05-07T03:46:05;16.33;;;10.50;;
44270;SDS011;29963;44.594;11.368;2023-05-07T03:48:30;10.40;;;9.40;;
44270;SDS011;29963;44.594;11.368;2023-05-07T03:50:57;9.57;;;8.60;;
44270;SDS011;29963;44.594;11.368;2023-05-07T03:53:23;10.73;;;9.57;;
44270;SDS011;29963;44.594;11.368;2023-05-07T03:55:48;13.30;;;9.88;;
44270;SDS011;29963;44.594;11.368;2023-05-07T03:58:14;13.25;;;11.48;;
44270;SDS011;29963;44.594;11.368;2023-05-07T04:00:40;12.98;;;11.73;;
44270;SDS011;29963;44.594;11.368;2023-05-07T04:03:06;14.30;;;10.88;;
44270;SDS011;29963;44.594;11.368;2023-05-07T04:05:32;12.32;;;10.90;;
44270;SDS011;29963;44.594;11.368;2023-05-07T04:07:57;15.63;;;13.07;;
44270;SDS011;29963;44.594;11.368;2023-05-07T04:10:24;12.48;;;11.25;;
44270;SDS011;29963;44.594;11.368;2023-05-07T04:12:49;13.23;;;11.82;;
44270;SDS011;29963;44.594;11.368;2023-05-07T04:15:15;11.88;;;10.63;;
44270;SDS011;29963;44.594;11.368;2023-05-07T04:17:41;12.10;;;10.45;;
44270;SDS011;29963;44.594;11.368;2023-05-07T04:20:08;10.98;;;9.52;;
44270;SDS011;29963;44.594;11.368;2023-05-07T04:22:35;11.13;;;9.93;;
44270;SDS011;29963;44.594;11.368;2023-05-07T04:25:01;9.68;;;8.77;;
44270;SDS011;29963;44.594;11.368;2023-05-07T04:27:27;8.80;;;7.57;;
44270;SDS011;29963;44.594;11.368;2023-05-07T04:29:53;8.13;;;7.13;;
44270;SDS011;29963;44.594;11.368;2023-05-07T04:32:20;7.82;;;6.97;;
44270;SDS011;29963;44.594;11.368;2023-05-07T04:34:50;7.90;;;7.07;;
44270;SDS011;29963;44.594;11.368;2023-05-07T04:37:15;7.78;;;6.90;;
44270;SDS011;29963;44.594;11.368;2023-05-07T04:39:41;7.60;;;6.55;;
44270;SDS011;29963;44.594;11.368;2023-05-07T04:42:06;9.00;;;7.35;;
44270;SDS011;29963;44.594;11.368;2023-05-07T04:44:33;7.38;;;6.28;;
44270;SDS011;29963;44.594;11.368;2023-05-07T04:47:00;6.90;;;6.20;;
44270;SDS011;29963;44.594;11.368;2023-05-07T04:49:25;7.70;;;6.93;;
44270;SDS011;29963;44.594;11.368;2023-05-07T04:51:51;9.63;;;6.72;;
44270;SDS011;29963;44.594;11.368;2023-05-07T04:54:17;8.50;;;5.97;;
44270;SDS011;29963;44.594;11.368;2023-05-07T04:56:42;7.95;;;7.10;;
44270;SDS011;29963;44.594;11.368;2023-05-07T04:59:08;7.55;;;6.85;;
44270;SDS011;29963;44.594;11.368;2023-05-07T05:01:33;8.65;;;7.68;;
44270;SDS011;29963;44.594;11.368;2023-05-07T05:03:59;8.07;;;7.35;;
44270;SDS011;29963;44.594;11.368;2023-05-07T05:06:25;9.55;;;8.55;;
44270;SDS011;29963;44.594;11.368;2023-05-07T05:08:51;12.55;;;9.18;;
44270;SDS011;29963;44.594;11.368;2023-05-07T05:11:17;10.80;;;8.63;;
44270;SDS011;29963;44.594;11.368;2023-05-07T05:13:42;12.07;;;9.65;;
44270;SDS011;29963;44.594;11.368;2023-05-07T05:16:08;11.40;;;10.20;;
44270;SDS011;29963;44.594;11.368;2023-05-07T05:18:34;12.65;;;10.77;;
44270;SDS011;29963;44.594;11.368;2023-05-07T05:20:59;13.63;;;12.23;;
44270;SDS011;29963;44.594;11.368;2023-05-07T05:23:25;15.25;;;13.65;;
44270;SDS011;29963;44.594;11.368;2023-05-07T05:25:55;15.82;;;14.35;;
44270;SDS011;29963;44.594;11.368;2023-05-07T05:28:22;17.90;;;14.73;;
44270;SDS011;29963;44.594;11.368;2023-05-07T05:30:48;16.02;;;14.10;;
44270;SDS011;29963;44.594;11.368;2023-05-07T05:33:14;17.45;;;15.73;;
44270;SDS011;29963;44.594;11.368;2023-05-07T05:35:39;21.58;;;17.27;;
44270;SDS011;29963;44.594;11.368;2023-05-07T05:38:05;29.13;;;22.05;;
44270;SDS011;29963;44.594;11.368;2023-05-07T05:40:31;30.95;;;22.77;;
44270;SDS011;29963;44.594;11.368;2023-05-07T05:42:57;28.48;;;21.50;;
44270;SDS011;29963;44.594;11.368;2023-05-07T05:45:22;21.92;;;19.63;;
44270;SDS011;29963;44.594;11.368;2023-05-07T05:47:48;23.80;;;21.17;;
44270;SDS011;29963;44.594;11.368;2023-05-07T05:50:13;24.38;;;21.85;;
44270;SDS011;29963;44.594;11.368;2023-05-07T05:52:39;27.25;;;22.83;;
44270;SDS011;29963;44.594;11.368;2023-05-07T05:55:05;26.10;;;23.33;;
44270;SDS011;29963;44.594;11.368;2023-05-07T05:57:31;24.98;;;22.42;;
44270;SDS011;29963;44.594;11.368;2023-05-07T05:59:57;27.92;;;23.25;;
44270;SDS011;29963;44.594;11.368;2023-05-07T06:02:23;26.20;;;23.55;;
44270;SDS011;29963;44.594;11.368;2023-05-07T06:04:49;26.65;;;23.73;;
44270;SDS011;29963;44.594;11.368;2023-05-07T06:07:14;28.33;;;25.33;;
44270;SDS011;29963;44.594;11.368;2023-05-07T06:09:40;28.23;;;25.33;;
44270;SDS011;29963;44.594;11.368;2023-05-07T06:12:05;30.65;;;26.08;;
44270;SDS011;29963;44.594;11.368;2023-05-07T06:14:31;29.40;;;26.50;;
44270;SDS011;29963;44.594;11.368;2023-05-07T06:16:56;29.95;;;26.80;;
44270;SDS011;29963;44.594;11.368;2023-05-07T06:19:22;30.63;;;27.30;;
44270;SDS011;29963;44.594;11.368;2023-05-07T06:21:49;32.20;;;28.60;;
44270;SDS011;29963;44.594;11.368;2023-05-07T06:24:15;33.50;;;29.75;;
44270;SDS011;29963;44.594;11.368;2023-05-07T06:26:40;35.40;;;31.65;;
44270;SDS011;29963;44.594;11.368;2023-05-07T06:29:06;34.35;;;30.77;;
44270;SDS011;29963;44.594;11.368;2023-05-07T06:31:32;38.38;;;32.63;;
44270;SDS011;29963;44.594;11.368;2023-05-07T06:33:57;33.20;;;27.75;;
44270;SDS011;29963;44.594;11.368;2023-05-07T06:36:24;33.03;;;28.58;;
44270;SDS011;29963;44.594;11.368;2023-05-07T06:38:49;31.95;;;28.63;;
44270;SDS011;29963;44.594;11.368;2023-05-07T06:41:15;32.38;;;28.90;;
44270;SDS011;29963;44.594;11.368;2023-05-07T06:43:41;33.33;;;29.48;;
44270;SDS011;29963;44.594;11.368;2023-05-07T06:46:06;32.33;;;28.80;;
44270;SDS011;29963;44.594;11.368;2023-05-07T06:48:32;34.85;;;29.85;;
44270;SDS011;29963;44.594;11.368;2023-05-07T06:50:57;32.85;;;29.50;;
44270;SDS011;29963;44.594;11.368;2023-05-07T06:53:23;32.33;;;29.02;;
44270;SDS011;29963;44.594;11.368;2023-05-07T06:55:49;31.13;;;27.83;;
44270;SDS011;29963;44.594;11.368;2023-05-07T06:58:15;31.70;;;28.30;;
44270;SDS011;29963;44.594;11.368;2023-05-07T07:00:40;32.65;;;29.20;;
44270;SDS011;29963;44.594;11.368;2023-05-07T07:03:06;38.00;;;29.75;;
44270;SDS011;29963;44.594;11.368;2023-05-07T07:05:32;31.42;;;28.02;;
44270;SDS011;29963;44.594;11.368;2023-05-07T07:07:57;32.42;;;28.95;;
44270;SDS011;29963;44.594;11.368;2023-05-07T07:10:23;31.38;;;28.15;;
44270;SDS011;29963;44.594;11.368;2023-05-07T07:12:49;32.60;;;29.08;;
44270;SDS011;29963;44.594;11.368;2023-05-07T07:15:15;31.15;;;27.95;;
44270;SDS011;29963;44.594;11.368;2023-05-07T07:17:41;31.52;;;28.50;;
44270;SDS011;29963;44.594;11.368;2023-05-07T07:20:07;31.35;;;28.05;;
44270;SDS011;29963;44.594;11.368;2023-05-07T07:22:33;32.28;;;29.05;;
44270;SDS011;29963;44.594;11.368;2023-05-07T07:24:59;31.38;;;28.08;;
44270;SDS011;29963;44.594;11.368;2023-05-07T07:27:25;30.55;;;26.15;;
44270;SDS011;29963;44.594;11.368;2023-05-07T07:29:50;28.35;;;25.17;;
44270;SDS011;29963;44.594;11.368;2023-05-07T07:32:16;28.90;;;25.80;;
44270;SDS011;29963;44.594;11.368;2023-05-07T07:34:42;31.85;;;27.48;;
44270;SDS011;29963;44.594;11.368;2023-05-07T07:37:07;30.05;;;27.00;;
44270;SDS011;29963;44.594;11.368;2023-05-07T07:39:33;28.45;;;25.45;;
44270;SDS011;29963;44.594;11.368;2023-05-07T07:41:59;32.70;;;29.23;;
44270;SDS011;29963;44.594;11.368;2023-05-07T07:44:25;30.42;;;27.33;;
44270;SDS011;29963;44.594;11.368;2023-05-07T07:46:50;29.73;;;26.45;;
44270;SDS011;29963;44.594;11.368;2023-05-07T07:49:16;28.73;;;25.77;;
44270;SDS011;29963;44.594;11.368;2023-05-07T07:51:42;27.27;;;24.30;;
44270;SDS011;29963;44.594;11.368;2023-05-07T07:54:08;27.27;;;24.45;;
44270;SDS011;29963;44.594;11.368;2023-05-07T07:56:33;25.02;;;22.63;;
44270;SDS011;29963;44.594;11.368;2023-05-07T07:58:59;25.88;;;23.15;;
44270;SDS011;29963;44.594;11.368;2023-05-07T08:01:25;29.67;;;24.90;;
44270;SDS011;29963;44.594;11.368;2023-05-07T08:03:51;24.27;;;21.77;;
44270;SDS011;29963;44.594;11.368;2023-05-07T08:06:17;23.30;;;20.67;;
44270;SDS011;29963;44.594;11.368;2023-05-07T08:08:43;22.92;;;20.33;;
44270;SDS011;29963;44.594;11.368;2023-05-07T08:11:08;23.00;;;20.80;;
44270;SDS011;29963;44.594;11.368;2023-05-07T08:13:35;24.25;;;21.80;;
44270;SDS011;29963;44.594;11.368;2023-05-07T08:16:01;21.45;;;19.17;;
44270;SDS011;29963;44.594;11.368;2023-05-07T08:18:27;22.95;;;20.65;;
44270;SDS011;29963;44.594;11.368;2023-05-07T08:20:53;20.92;;;18.77;;
44270;SDS011;29963;44.594;11.368;2023-05-07T08:23:19;22.80;;;20.38;;
44270;SDS011;29963;44.594;11.368;2023-05-07T08:25:45;21.70;;;18.90;;
44270;SDS011;29963;44.594;11.368;2023-05-07T08:28:11;19.27;;;17.48;;
44270;SDS011;29963;44.594;11.368;2023-05-07T08:30:37;17.77;;;16.08;;
44270;SDS011;29963;44.594;11.368;2023-05-07T08:33:02;19.38;;;17.55;;
44270;SDS011;29963;44.594;11.368;2023-05-07T08:35:28;20.80;;;18.65;;
44270;SDS011;29963;44.594;11.368;2023-05-07T08:37:53;18.65;;;16.70;;
44270;SDS011;29963;44.594;11.368;2023-05-07T08:40:20;20.70;;;18.60;;
44270;SDS011;29963;44.594;11.368;2023-05-07T08:42:50;21.75;;;19.30;;
44270;SDS011;29963;44.594;11.368;2023-05-07T08:45:17;21.30;;;19.30;;
44270;SDS011;29963;44.594;11.368;2023-05-07T08:47:46;20.98;;;18.60;;
44270;SDS011;29963;44.594;11.368;2023-05-07T08:50:16;20.92;;;18.52;;
44270;SDS011;29963;44.594;11.368;2023-05-07T08:52:42;18.08;;;16.17;;
44270;SDS011;29963;44.594;11.368;2023-05-07T08:55:08;20.55;;;17.17;;
44270;SDS011;29963;44.594;11.368;2023-05-07T08:57:34;18.63;;;16.75;;
44270;SDS011;29963;44.594;11.368;2023-05-07T09:00:01;18.83;;;16.92;;
44270;SDS011;29963;44.594;11.368;2023-05-07T09:02:28;15.77;;;14.00;;
44270;SDS011;29963;44.594;11.368;2023-05-07T09:04:54;16.40;;;14.70;;
44270;SDS011;29963;44.594;11.368;2023-05-07T09:07:20;16.50;;;14.93;;
44270;SDS011;29963;44.594;11.368;2023-05-07T09:09:46;16.98;;;15.20;;
44270;SDS011;29963;44.594;11.368;2023-05-07T09:12:12;20.70;;;16.20;;
44270;SDS011;29963;44.594;11.368;2023-05-07T09:14:37;15.90;;;14.13;;
44270;SDS011;29963;44.594;11.368;2023-05-07T09:17:04;19.30;;;16.73;;
44270;SDS011;29963;44.594;11.368;2023-05-07T09:19:30;19.38;;;17.00;;
44270;SDS011;29963;44.594;11.368;2023-05-07T09:22:02;18.17;;;15.93;;
44270;SDS011;29963;44.594;11.368;2023-05-07T09:24:30;17.13;;;15.52;;
44270;SDS011;29963;44.594;11.368;2023-05-07T09:26:59;17.48;;;15.63;;
44270;SDS011;29963;44.594;11.368;2023-05-07T09:29:26;18.27;;;16.13;;
44270;SDS011;29963;44.594;11.368;2023-05-07T09:31:53;17.42;;;15.65;;
44270;SDS011;29963;44.594;11.368;2023-05-07T09:34:19;15.88;;;14.27;;
44270;SDS011;29963;44.594;11.368;2023-05-07T09:36:45;14.20;;;12.65;;
44270;SDS011;29963;44.594;11.368;2023-05-07T09:39:11;15.63;;;14.02;;
44270;SDS011;29963;44.594;11.368;2023-05-07T09:41:44;12.85;;;11.02;;
44270;SDS011;29963;44.594;11.368;2023-05-07T09:44:10;12.93;;;11.25;;
44270;SDS011;29963;44.594;11.368;2023-05-07T09:46:36;14.00;;;12.60;;
44270;SDS011;29963;44.594;11.368;2023-05-07T09:49:03;14.18;;;12.77;;
44270;SDS011;29963;44.594;11.368;2023-05-07T09:51:38;11.32;;;10.32;;
44270;SDS011;29963;44.594;11.368;2023-05-07T09:54:09;10.32;;;9.32;;
44270;SDS011;29963;44.594;11.368;2023-05-07T09:56:36;12.93;;;9.45;;
44270;SDS011;29963;44.594;11.368;2023-05-07T09:59:03;12.80;;;11.50;;
44270;SDS011;29963;44.594;11.368;2023-05-07T10:01:31;13.10;;;11.18;;
44270;SDS011;29963;44.594;11.368;2023-05-07T10:03:57;11.75;;;10.57;;
44270;SDS011;29963;44.594;11.368;2023-05-07T10:06:23;13.30;;;12.07;;
44270;SDS011;29963;44.594;11.368;2023-05-07T10:08:51;11.50;;;10.30;;
44270;SDS011;29963;44.594;11.368;2023-05-07T10:11:17;11.77;;;10.35;;
44270;SDS011;29963;44.594;11.368;2023-05-07T10:13:44;17.75;;;10.23;;
44270;SDS011;29963;44.594;11.368;2023-05-07T10:16:12;9.65;;;8.75;;
44270;SDS011;29963;44.594;11.368;2023-05-07T10:18:40;9.57;;;8.38;;
44270;SDS011;29963;44.594;11.368;2023-05-07T10:21:11;8.63;;;7.72;;
44270;SDS011;29963;44.594;11.368;2023-05-07T10:23:59;12.18;;;10.48;;
44270;SDS011;29963;44.594;11.368;2023-05-07T10:26:40;10.13;;;9.13;;
44270;SDS011;29963;44.594;11.368;2023-05-07T10:31:58;9.93;;;8.95;;
44270;SDS011;29963;44.594;11.368;2023-05-07T10:34:44;9.45;;;8.05;;
44270;SDS011;29963;44.594;11.368;2023-05-07T10:37:13;10.40;;;9.30;;
44270;SDS011;29963;44.594;11.368;2023-05-07T10:39:40;10.45;;;7.80;;
44270;SDS011;29963;44.594;11.368;2023-05-07T10:42:12;9.73;;;8.82;;
44270;SDS011;29963;44.594;11.368;2023-05-07T10:44:39;10.07;;;9.07;;
44270;SDS011;29963;44.594;11.368;2023-05-07T10:47:12;12.98;;;8.50;;
44270;SDS011;29963;44.594;11.368;2023-05-07T10:52:23;9.10;;;8.02;;
44270;SDS011;29963;44.594;11.368;2023-05-07T10:57:46;6.93;;;6.20;;
44270;SDS011;29963;44.594;11.368;2023-05-07T11:05:25;6.13;;;5.53;;
44270;SDS011;29963;44.594;11.368;2023-05-07T11:08:01;6.38;;;5.72;;
44270;SDS011;29963;44.594;11.368;2023-05-07T11:13:13;6.32;;;5.72;;
44270;SDS011;29963;44.594;11.368;2023-05-07T11:15:40;7.82;;;7.03;;
44270;SDS011;29963;44.594;11.368;2023-05-07T11:18:08;9.00;;;8.20;;
44270;SDS011;29963;44.594;11.368;2023-05-07T11:20:48;8.52;;;6.38;;
44270;SDS011;29963;44.594;11.368;2023-05-07T11:26:03;6.45;;;5.55;;
44270;SDS011;29963;44.594;11.368;2023-05-07T11:28:30;6.70;;;6.10;;
44270;SDS011;29963;44.594;11.368;2023-05-07T11:31:02;6.50;;;5.85;;
44270;SDS011;29963;44.594;11.368;2023-05-07T11:33:29;7.75;;;7.00;;
44270;SDS011;29963;44.594;11.368;2023-05-07T11:35:56;8.20;;;6.30;;
44270;SDS011;29963;44.594;11.368;2023-05-07T11:38:22;8.43;;;6.45;;
44270;SDS011;29963;44.594;11.368;2023-05-07T11:40:50;9.80;;;6.53;;
44270;SDS011;29963;44.594;11.368;2023-05-07T11:43:17;7.53;;;5.65;;
44270;SDS011;29963;44.594;11.368;2023-05-07T11:45:44;5.30;;;4.80;;
44270;SDS011;29963;44.594;11.368;2023-05-07T11:48:11;5.38;;;4.88;;
44270;SDS011;29963;44.594;11.368;2023-05-07T11:51:00;7.18;;;4.95;;
44270;SDS011;29963;44.594;11.368;2023-05-07T11:53:24;6.18;;;4.70;;
44270;SDS011;29963;44.594;11.368;2023-05-07T11:55:57;5.80;;;5.20;;
44270;SDS011;29963;44.594;11.368;2023-05-07T11:58:23;8.45;;;6.30;;
44270;SDS011;29963;44.594;11.368;2023-05-07T12:00:53;5.40;;;4.90;;
44270;SDS011;29963;44.594;11.368;2023-05-07T12:03:19;5.97;;;4.95;;
44270;SDS011;29963;44.594;11.368;2023-05-07T12:05:45;5.00;;;4.50;;
44270;SDS011;29963;44.594;11.368;2023-05-07T12:08:18;6.57;;;5.80;;
44270;SDS011;29963;44.594;11.368;2023-05-07T12:10:45;7.85;;;5.07;;
44270;SDS011;29963;44.594;11.368;2023-05-07T12:13:14;6.82;;;4.95;;
44270;SDS011;29963;44.594;11.368;2023-05-07T12:15:41;6.63;;;6.00;;
44270;SDS011;29963;44.594;11.368;2023-05-07T12:18:07;3.80;;;3.45;;
44270;SDS011;29963;44.594;11.368;2023-05-07T12:20:33;4.82;;;4.32;;
44270;SDS011;29963;44.594;11.368;2023-05-07T12:23:01;4.15;;;3.85;;
44270;SDS011;29963;44.594;11.368;2023-05-07T12:25:29;5.93;;;3.80;;
44270;SDS011;29963;44.594;11.368;2023-05-07T12:27:56;5.65;;;4.50;;
44270;SDS011;29963;44.594;11.368;2023-05-07T12:30:23;4.57;;;4.18;;
44270;SDS011;29963;44.594;11.368;2023-05-07T12:32:52;6.95;;;6.13;;
44270;SDS011;29963;44.594;11.368;2023-05-07T12:35:25;5.72;;;5.20;;
44270;SDS011;29963;44.594;11.368;2023-05-07T12:37:58;6.82;;;5.70;;
44270;SDS011;29963;44.594;11.368;2023-05-07T12:40:29;8.30;;;7.35;;
44270;SDS011;29963;44.594;11.368;2023-05-07T12:43:07;7.00;;;5.70;;
44270;SDS011;29963;44.594;11.368;2023-05-07T12:45:41;6.82;;;6.18;;
44270;SDS011;29963;44.594;11.368;2023-05-07T12:48:07;4.57;;;4.13;;
44270;SDS011;29963;44.594;11.368;2023-05-07T12:50:35;4.75;;;4.30;;
44270;SDS011;29963;44.594;11.368;2023-05-07T12:53:00;4.70;;;4.30;;
44270;SDS011;29963;44.594;11.368;2023-05-07T12:55:30;5.90;;;5.13;;
44270;SDS011;29963;44.594;11.368;2023-05-07T12:57:56;5.32;;;4.57;;
44270;SDS011;29963;44.594;11.368;2023-05-07T13:00:38;7.88;;;6.32;;
44270;SDS011;29963;44.594;11.368;2023-05-07T13:03:03;5.97;;;4.32;;
44270;SDS011;29963;44.594;11.368;2023-05-07T13:05:30;6.07;;;4.85;;
44270;SDS011;29963;44.594;11.368;2023-05-07T13:07:56;5.88;;;3.88;;
44270;SDS011;29963;44.594;11.368;2023-05-07T13:10:22;5.25;;;4.35;;
44270;SDS011;29963;44.594;11.368;2023-05-07T13:12:49;4.63;;;4.20;;
44270;SDS011;29963;44.594;11.368;2023-05-07T13:15:15;3.85;;;3.45;;
44270;SDS011;29963;44.594;11.368;2023-05-07T13:17:41;6.30;;;3.88;;
44270;SDS011;29963;44.594;11.368;2023-05-07T13:20:08;4.30;;;4.00;;
44270;SDS011;29963;44.594;11.368;2023-05-07T13:22:34;4.00;;;3.58;;
44270;SDS011;29963;44.594;11.368;2023-05-07T13:25:00;4.10;;;3.70;;
44270;SDS011;29963;44.594;11.368;2023-05-07T13:27:26;4.30;;;3.75;;
44270;SDS011;29963;44.594;11.368;2023-05-07T13:29:52;4.35;;;4.00;;
44270;SDS011;29963;44.594;11.368;2023-05-07T13:32:17;3.33;;;3.03;;
44270;SDS011;29963;44.594;11.368;2023-05-07T13:34:43;4.13;;;3.53;;
44270;SDS011;29963;44.594;11.368;2023-05-07T13:37:08;6.82;;;4.13;;
44270;SDS011;29963;44.594;11.368;2023-05-07T13:39:34;4.40;;;4.00;;
44270;SDS011;29963;44.594;11.368;2023-05-07T13:42:00;4.25;;;3.75;;
44270;SDS011;29963;44.594;11.368;2023-05-07T13:44:26;3.70;;;3.40;;
44270;SDS011;29963;44.594;11.368;2023-05-07T13:46:51;5.30;;;4.32;;
44270;SDS011;29963;44.594;11.368;2023-05-07T13:49:18;3.53;;;3.22;;
44270;SDS011;29963;44.594;11.368;2023-05-07T13:51:44;4.07;;;3.60;;
44270;SDS011;29963;44.594;11.368;2023-05-07T13:54:10;5.20;;;3.70;;
44270;SDS011;29963;44.594;11.368;2023-05-07T13:56:36;5.43;;;3.45;;
44270;SDS011;29963;44.594;11.368;2023-05-07T13:59:01;4.88;;;4.32;;
44270;SDS011;29963;44.594;11.368;2023-05-07T14:01:27;4.47;;;3.58;;
44270;SDS011;29963;44.594;11.368;2023-05-07T14:03:53;3.65;;;3.00;;
44270;SDS011;29963;44.594;11.368;2023-05-07T14:06:18;3.50;;;3.20;;
44270;SDS011;29963;44.594;11.368;2023-05-07T14:08:44;3.35;;;3.03;;
44270;SDS011;29963;44.594;11.368;2023-05-07T14:11:10;5.35;;;3.60;;
44270;SDS011;29963;44.594;11.368;2023-05-07T14:13:35;3.65;;;3.03;;
44270;SDS011;29963;44.594;11.368;2023-05-07T14:16:01;4.57;;;3.55;;
44270;SDS011;29963;44.594;11.368;2023-05-07T14:18:27;3.47;;;3.05;;
44270;SDS011;29963;44.594;11.368;2023-05-07T14:20:54;4.38;;;3.45;;
44270;SDS011;29963;44.594;11.368;2023-05-07T14:23:19;7.05;;;2.88;;
44270;SDS011;29963;44.594;11.368;2023-05-07T14:25:50;2.50;;;2.30;;
44270;SDS011;29963;44.594;11.368;2023-05-07T14:28:16;3.78;;;3.25;;
44270;SDS011;29963;44.594;11.368;2023-05-07T14:30:41;3.45;;;3.15;;
44270;SDS011;29963;44.594;11.368;2023-05-07T14:33:07;7.05;;;3.17;;
44270;SDS011;29963;44.594;11.368;2023-05-07T14:35:32;3.72;;;3.40;;
44270;SDS011;29963;44.594;11.368;2023-05-07T14:37:58;4.32;;;3.85;;